Dalmeny, Canada
Current Conditions -  °F | °C
As of 3:00 AM on Monday 24 Nov 2014 (Local Time) from CYXE Reporting Station
Light Fog Light Fog  
Wind Chill: -11°   Ceiling: 500
Heat Index:   Visibility: 8mi
Dew Point: -2°   Wind: 7mph
Humidity: 85%   Direction: 250°WSW
Pressure: 29.88"   Gusts: NA
Location:  52.33°N, 106.78°W
Report Text: CYXE 240900Z 25006KT 8SM PRFG BKN005 OVC040 M17/M19 A2988 RMK ST6SC2 SLP162
Loading
Personal Weather Stations






























Interactive Weather Map New forecast layout! Learn more

10-Day Weather Forecast

Advertisements
Track Severe Weather on mobile